sensor_id;sensor_type;location;lat;lon;timestamp;P1;durP1;ratioP1;P2;durP2;ratioP2
20124;SDS011;10223;50.862;4.360;2023-07-09T00:02:11;9.95;;;4.57;;
20124;SDS011;10223;50.862;4.360;2023-07-09T00:04:38;7.35;;;4.30;;
20124;SDS011;10223;50.862;4.360;2023-07-09T00:07:11;12.60;;;4.53;;
20124;SDS011;10223;50.862;4.360;2023-07-09T00:09:43;12.15;;;4.88;;
20124;SDS011;10223;50.862;4.360;2023-07-09T00:12:11;9.55;;;5.00;;
20124;SDS011;10223;50.862;4.360;2023-07-09T00:14:40;8.50;;;4.95;;
20124;SDS011;10223;50.862;4.360;2023-07-09T00:17:08;9.40;;;5.47;;
20124;SDS011;10223;50.862;4.360;2023-07-09T00:19:37;13.18;;;6.45;;
20124;SDS011;10223;50.862;4.360;2023-07-09T00:22:04;8.63;;;4.65;;
20124;SDS011;10223;50.862;4.360;2023-07-09T00:24:42;10.63;;;4.55;;
20124;SDS011;10223;50.862;4.360;2023-07-09T00:27:10;14.55;;;8.18;;
20124;SDS011;10223;50.862;4.360;2023-07-09T00:29:37;13.48;;;6.43;;
20124;SDS011;10223;50.862;4.360;2023-07-09T00:32:07;7.03;;;4.80;;
20124;SDS011;10223;50.862;4.360;2023-07-09T00:34:37;9.98;;;5.50;;
20124;SDS011;10223;50.862;4.360;2023-07-09T00:37:07;10.05;;;5.35;;
20124;SDS011;10223;50.862;4.360;2023-07-09T00:39:39;10.77;;;5.03;;
20124;SDS011;10223;50.862;4.360;2023-07-09T00:42:08;10.18;;;5.10;;
20124;SDS011;10223;50.862;4.360;2023-07-09T00:44:39;11.52;;;5.00;;
20124;SDS011;10223;50.862;4.360;2023-07-09T00:47:22;12.98;;;5.90;;
20124;SDS011;10223;50.862;4.360;2023-07-09T00:50:08;15.85;;;7.80;;
20124;SDS011;10223;50.862;4.360;2023-07-09T00:52:43;17.73;;;10.05;;
20124;SDS011;10223;50.862;4.360;2023-07-09T00:55:17;9.70;;;5.82;;
20124;SDS011;10223;50.862;4.360;2023-07-09T00:57:48;9.07;;;5.68;;
20124;SDS011;10223;50.862;4.360;2023-07-09T01:00:22;9.02;;;5.90;;
20124;SDS011;10223;50.862;4.360;2023-07-09T01:02:54;19.63;;;12.43;;
20124;SDS011;10223;50.862;4.360;2023-07-09T01:05:23;11.10;;;6.20;;
20124;SDS011;10223;50.862;4.360;2023-07-09T01:07:50;10.77;;;5.72;;
20124;SDS011;10223;50.862;4.360;2023-07-09T01:10:19;9.07;;;5.10;;
20124;SDS011;10223;50.862;4.360;2023-07-09T01:12:46;11.07;;;5.75;;
20124;SDS011;10223;50.862;4.360;2023-07-09T01:15:30;12.20;;;5.28;;
20124;SDS011;10223;50.862;4.360;2023-07-09T01:17:59;12.77;;;6.20;;
20124;SDS011;10223;50.862;4.360;2023-07-09T01:20:26;9.90;;;5.55;;
20124;SDS011;10223;50.862;4.360;2023-07-09T01:22:54;18.52;;;5.43;;
20124;SDS011;10223;50.862;4.360;2023-07-09T01:25:22;11.30;;;5.50;;
20124;SDS011;10223;50.862;4.360;2023-07-09T01:27:50;10.63;;;6.10;;
20124;SDS011;10223;50.862;4.360;2023-07-09T01:30:18;7.82;;;5.00;;
20124;SDS011;10223;50.862;4.360;2023-07-09T01:32:48;11.48;;;5.38;;
20124;SDS011;10223;50.862;4.360;2023-07-09T01:35:16;15.30;;;5.43;;
20124;SDS011;10223;50.862;4.360;2023-07-09T01:37:44;11.23;;;5.15;;
20124;SDS011;10223;50.862;4.360;2023-07-09T01:40:14;11.52;;;4.63;;
20124;SDS011;10223;50.862;4.360;2023-07-09T01:42:42;10.50;;;4.82;;
20124;SDS011;10223;50.862;4.360;2023-07-09T01:45:10;8.13;;;4.75;;
20124;SDS011;10223;50.862;4.360;2023-07-09T01:47:37;10.60;;;4.78;;
20124;SDS011;10223;50.862;4.360;2023-07-09T01:50:05;11.23;;;4.55;;
20124;SDS011;10223;50.862;4.360;2023-07-09T01:52:34;8.88;;;4.53;;
20124;SDS011;10223;50.862;4.360;2023-07-09T01:55:03;10.15;;;4.78;;
20124;SDS011;10223;50.862;4.360;2023-07-09T01:57:32;8.60;;;4.72;;
20124;SDS011;10223;50.862;4.360;2023-07-09T01:59:59;8.02;;;4.65;;
20124;SDS011;10223;50.862;4.360;2023-07-09T02:02:28;9.68;;;5.28;;
20124;SDS011;10223;50.862;4.360;2023-07-09T02:04:57;8.20;;;5.03;;
20124;SDS011;10223;50.862;4.360;2023-07-09T02:07:25;11.82;;;5.13;;
20124;SDS011;10223;50.862;4.360;2023-07-09T02:09:52;11.95;;;5.18;;
20124;SDS011;10223;50.862;4.360;2023-07-09T02:12:20;13.73;;;5.40;;
20124;SDS011;10223;50.862;4.360;2023-07-09T02:14:48;9.05;;;4.82;;
20124;SDS011;10223;50.862;4.360;2023-07-09T02:17:15;10.82;;;4.68;;
20124;SDS011;10223;50.862;4.360;2023-07-09T02:19:42;9.35;;;4.93;;
20124;SDS011;10223;50.862;4.360;2023-07-09T02:22:09;10.63;;;4.97;;
20124;SDS011;10223;50.862;4.360;2023-07-09T02:24:37;13.00;;;4.82;;
20124;SDS011;10223;50.862;4.360;2023-07-09T02:27:05;10.30;;;5.18;;
20124;SDS011;10223;50.862;4.360;2023-07-09T02:29:32;11.15;;;4.88;;
20124;SDS011;10223;50.862;4.360;2023-07-09T02:32:01;12.23;;;5.05;;
20124;SDS011;10223;50.862;4.360;2023-07-09T02:34:28;10.20;;;4.50;;
20124;SDS011;10223;50.862;4.360;2023-07-09T02:36:57;16.20;;;5.28;;
20124;SDS011;10223;50.862;4.360;2023-07-09T02:39:25;10.52;;;5.05;;
20124;SDS011;10223;50.862;4.360;2023-07-09T02:41:52;9.75;;;4.90;;
20124;SDS011;10223;50.862;4.360;2023-07-09T02:44:19;7.53;;;4.47;;
20124;SDS011;10223;50.862;4.360;2023-07-09T02:46:46;9.45;;;4.78;;
20124;SDS011;10223;50.862;4.360;2023-07-09T02:49:15;10.98;;;4.75;;
20124;SDS011;10223;50.862;4.360;2023-07-09T02:51:42;9.50;;;4.28;;
20124;SDS011;10223;50.862;4.360;2023-07-09T02:54:09;8.27;;;4.53;;
20124;SDS011;10223;50.862;4.360;2023-07-09T02:56:36;11.77;;;5.00;;
20124;SDS011;10223;50.862;4.360;2023-07-09T02:59:02;10.25;;;4.63;;
20124;SDS011;10223;50.862;4.360;2023-07-09T03:01:30;8.07;;;4.55;;
20124;SDS011;10223;50.862;4.360;2023-07-09T03:03:59;8.70;;;4.72;;
20124;SDS011;10223;50.862;4.360;2023-07-09T03:06:29;11.73;;;4.20;;
20124;SDS011;10223;50.862;4.360;2023-07-09T03:08:58;7.75;;;4.32;;
20124;SDS011;10223;50.862;4.360;2023-07-09T03:11:27;7.50;;;4.55;;
20124;SDS011;10223;50.862;4.360;2023-07-09T03:13:55;8.35;;;4.60;;
20124;SDS011;10223;50.862;4.360;2023-07-09T03:16:23;6.70;;;4.20;;
20124;SDS011;10223;50.862;4.360;2023-07-09T03:18:50;8.52;;;3.90;;
20124;SDS011;10223;50.862;4.360;2023-07-09T03:21:16;8.25;;;4.15;;
20124;SDS011;10223;50.862;4.360;2023-07-09T03:23:45;12.48;;;4.47;;
20124;SDS011;10223;50.862;4.360;2023-07-09T03:26:11;8.43;;;4.50;;
20124;SDS011;10223;50.862;4.360;2023-07-09T03:28:40;6.57;;;4.40;;
20124;SDS011;10223;50.862;4.360;2023-07-09T03:31:07;12.77;;;4.65;;
20124;SDS011;10223;50.862;4.360;2023-07-09T03:33:34;8.63;;;5.28;;
20124;SDS011;10223;50.862;4.360;2023-07-09T03:36:01;11.18;;;4.32;;
20124;SDS011;10223;50.862;4.360;2023-07-09T03:38:29;9.38;;;4.65;;
20124;SDS011;10223;50.862;4.360;2023-07-09T03:40:57;9.25;;;4.47;;
20124;SDS011;10223;50.862;4.360;2023-07-09T03:43:24;9.07;;;5.35;;
20124;SDS011;10223;50.862;4.360;2023-07-09T03:45:51;8.30;;;4.55;;
20124;SDS011;10223;50.862;4.360;2023-07-09T03:48:18;9.73;;;5.10;;
20124;SDS011;10223;50.862;4.360;2023-07-09T03:50:46;10.05;;;5.10;;
20124;SDS011;10223;50.862;4.360;2023-07-09T03:53:14;10.77;;;4.72;;
20124;SDS011;10223;50.862;4.360;2023-07-09T03:55:42;9.38;;;5.05;;
20124;SDS011;10223;50.862;4.360;2023-07-09T03:58:11;8.63;;;4.82;;
20124;SDS011;10223;50.862;4.360;2023-07-09T04:00:41;11.07;;;4.97;;
20124;SDS011;10223;50.862;4.360;2023-07-09T04:03:08;12.07;;;5.43;;
20124;SDS011;10223;50.862;4.360;2023-07-09T04:05:35;11.18;;;5.45;;
20124;SDS011;10223;50.862;4.360;2023-07-09T04:08:02;8.88;;;5.72;;
20124;SDS011;10223;50.862;4.360;2023-07-09T04:10:29;8.13;;;5.28;;
20124;SDS011;10223;50.862;4.360;2023-07-09T04:12:56;9.57;;;5.75;;
20124;SDS011;10223;50.862;4.360;2023-07-09T04:15:25;12.00;;;6.30;;
20124;SDS011;10223;50.862;4.360;2023-07-09T04:17:52;10.60;;;5.10;;
20124;SDS011;10223;50.862;4.360;2023-07-09T04:20:19;16.77;;;6.35;;
20124;SDS011;10223;50.862;4.360;2023-07-09T04:22:46;11.35;;;6.07;;
20124;SDS011;10223;50.862;4.360;2023-07-09T04:25:13;9.75;;;4.93;;
20124;SDS011;10223;50.862;4.360;2023-07-09T04:27:40;12.32;;;5.88;;
20124;SDS011;10223;50.862;4.360;2023-07-09T04:30:08;15.40;;;5.53;;
20124;SDS011;10223;50.862;4.360;2023-07-09T04:32:38;8.32;;;5.35;;
20124;SDS011;10223;50.862;4.360;2023-07-09T04:35:05;13.73;;;6.22;;
20124;SDS011;10223;50.862;4.360;2023-07-09T04:37:32;13.77;;;6.35;;
20124;SDS011;10223;50.862;4.360;2023-07-09T04:39:59;15.00;;;6.38;;
20124;SDS011;10223;50.862;4.360;2023-07-09T04:42:27;16.95;;;5.80;;
20124;SDS011;10223;50.862;4.360;2023-07-09T04:44:54;13.50;;;6.18;;
20124;SDS011;10223;50.862;4.360;2023-07-09T04:47:21;12.68;;;6.25;;
20124;SDS011;10223;50.862;4.360;2023-07-09T04:49:49;11.35;;;5.47;;
20124;SDS011;10223;50.862;4.360;2023-07-09T04:52:16;14.60;;;5.97;;
20124;SDS011;10223;50.862;4.360;2023-07-09T04:54:43;10.00;;;6.05;;
20124;SDS011;10223;50.862;4.360;2023-07-09T04:57:10;12.88;;;6.32;;
20124;SDS011;10223;50.862;4.360;2023-07-09T04:59:36;13.10;;;6.38;;
20124;SDS011;10223;50.862;4.360;2023-07-09T05:02:04;20.50;;;5.70;;
20124;SDS011;10223;50.862;4.360;2023-07-09T05:04:31;16.33;;;6.22;;
20124;SDS011;10223;50.862;4.360;2023-07-09T05:06:59;15.15;;;5.55;;
20124;SDS011;10223;50.862;4.360;2023-07-09T05:09:26;16.27;;;6.03;;
20124;SDS011;10223;50.862;4.360;2023-07-09T05:11:53;14.15;;;6.07;;
20124;SDS011;10223;50.862;4.360;2023-07-09T05:14:19;10.20;;;5.30;;
20124;SDS011;10223;50.862;4.360;2023-07-09T05:16:46;11.55;;;6.47;;
20124;SDS011;10223;50.862;4.360;2023-07-09T05:19:13;13.63;;;6.25;;
20124;SDS011;10223;50.862;4.360;2023-07-09T05:21:40;12.60;;;5.38;;
20124;SDS011;10223;50.862;4.360;2023-07-09T05:24:08;12.95;;;5.95;;
20124;SDS011;10223;50.862;4.360;2023-07-09T05:26:35;17.73;;;5.93;;
20124;SDS011;10223;50.862;4.360;2023-07-09T05:29:02;10.30;;;6.07;;
20124;SDS011;10223;50.862;4.360;2023-07-09T05:31:30;13.68;;;6.13;;
20124;SDS011;10223;50.862;4.360;2023-07-09T05:33:58;12.60;;;5.97;;
20124;SDS011;10223;50.862;4.360;2023-07-09T05:36:27;11.50;;;6.53;;
20124;SDS011;10223;50.862;4.360;2023-07-09T05:38:54;10.73;;;5.97;;
20124;SDS011;10223;50.862;4.360;2023-07-09T05:41:23;13.13;;;6.35;;
20124;SDS011;10223;50.862;4.360;2023-07-09T05:43:50;13.40;;;6.00;;
20124;SDS011;10223;50.862;4.360;2023-07-09T05:46:18;18.02;;;7.43;;
20124;SDS011;10223;50.862;4.360;2023-07-09T05:48:45;12.05;;;5.97;;
20124;SDS011;10223;50.862;4.360;2023-07-09T05:51:12;11.20;;;5.75;;
20124;SDS011;10223;50.862;4.360;2023-07-09T05:53:39;13.65;;;5.78;;
20124;SDS011;10223;50.862;4.360;2023-07-09T05:56:06;17.73;;;5.70;;
20124;SDS011;10223;50.862;4.360;2023-07-09T05:58:34;10.10;;;5.82;;
20124;SDS011;10223;50.862;4.360;2023-07-09T06:01:01;10.68;;;5.43;;
20124;SDS011;10223;50.862;4.360;2023-07-09T06:03:28;13.57;;;6.03;;
20124;SDS011;10223;50.862;4.360;2023-07-09T06:05:56;9.48;;;6.18;;
20124;SDS011;10223;50.862;4.360;2023-07-09T06:08:23;12.63;;;6.32;;
20124;SDS011;10223;50.862;4.360;2023-07-09T06:10:52;11.95;;;6.00;;
20124;SDS011;10223;50.862;4.360;2023-07-09T06:13:20;15.18;;;6.43;;
20124;SDS011;10223;50.862;4.360;2023-07-09T06:15:48;12.15;;;5.20;;
20124;SDS011;10223;50.862;4.360;2023-07-09T06:18:16;13.30;;;6.10;;
20124;SDS011;10223;50.862;4.360;2023-07-09T06:20:45;10.93;;;5.68;;
20124;SDS011;10223;50.862;4.360;2023-07-09T06:23:13;12.60;;;6.07;;
20124;SDS011;10223;50.862;4.360;2023-07-09T06:25:40;16.50;;;6.18;;
20124;SDS011;10223;50.862;4.360;2023-07-09T06:28:08;12.50;;;6.22;;
20124;SDS011;10223;50.862;4.360;2023-07-09T06:30:35;14.20;;;7.13;;
20124;SDS011;10223;50.862;4.360;2023-07-09T06:33:04;12.90;;;6.43;;
20124;SDS011;10223;50.862;4.360;2023-07-09T06:35:31;14.68;;;7.40;;
20124;SDS011;10223;50.862;4.360;2023-07-09T06:37:58;13.60;;;7.50;;
20124;SDS011;10223;50.862;4.360;2023-07-09T06:40:25;17.17;;;7.05;;
20124;SDS011;10223;50.862;4.360;2023-07-09T06:42:51;14.70;;;7.50;;
20124;SDS011;10223;50.862;4.360;2023-07-09T06:45:18;11.07;;;7.82;;
20124;SDS011;10223;50.862;4.360;2023-07-09T06:47:46;14.88;;;8.68;;
20124;SDS011;10223;50.862;4.360;2023-07-09T06:50:15;14.70;;;8.15;;
20124;SDS011;10223;50.862;4.360;2023-07-09T06:52:42;14.98;;;9.07;;
20124;SDS011;10223;50.862;4.360;2023-07-09T06:55:09;18.38;;;9.23;;
20124;SDS011;10223;50.862;4.360;2023-07-09T06:57:36;18.77;;;8.70;;
20124;SDS011;10223;50.862;4.360;2023-07-09T07:00:04;16.45;;;9.35;;
20124;SDS011;10223;50.862;4.360;2023-07-09T07:02:32;15.50;;;8.52;;
20124;SDS011;10223;50.862;4.360;2023-07-09T07:04:59;16.88;;;9.90;;
20124;SDS011;10223;50.862;4.360;2023-07-09T07:07:27;18.55;;;9.77;;
20124;SDS011;10223;50.862;4.360;2023-07-09T07:09:54;18.48;;;11.43;;
20124;SDS011;10223;50.862;4.360;2023-07-09T07:12:25;19.67;;;12.73;;
20124;SDS011;10223;50.862;4.360;2023-07-09T07:14:53;23.05;;;12.13;;
20124;SDS011;10223;50.862;4.360;2023-07-09T07:17:20;18.45;;;12.85;;
20124;SDS011;10223;50.862;4.360;2023-07-09T07:19:47;18.63;;;12.00;;
20124;SDS011;10223;50.862;4.360;2023-07-09T07:22:15;25.13;;;15.65;;
20124;SDS011;10223;50.862;4.360;2023-07-09T07:24:43;27.15;;;16.80;;
20124;SDS011;10223;50.862;4.360;2023-07-09T07:27:10;31.42;;;19.50;;
20124;SDS011;10223;50.862;4.360;2023-07-09T07:29:37;32.25;;;22.83;;
20124;SDS011;10223;50.862;4.360;2023-07-09T07:32:04;35.75;;;22.33;;
20124;SDS011;10223;50.862;4.360;2023-07-09T07:34:31;40.10;;;22.30;;
20124;SDS011;10223;50.862;4.360;2023-07-09T07:36:58;35.05;;;23.58;;
20124;SDS011;10223;50.862;4.360;2023-07-09T07:39:25;36.15;;;22.80;;
20124;SDS011;10223;50.862;4.360;2023-07-09T07:41:53;32.50;;;22.38;;
20124;SDS011;10223;50.862;4.360;2023-07-09T07:44:21;36.42;;;22.63;;
20124;SDS011;10223;50.862;4.360;2023-07-09T07:46:47;33.25;;;23.92;;
20124;SDS011;10223;50.862;4.360;2023-07-09T07:49:14;36.92;;;21.83;;
20124;SDS011;10223;50.862;4.360;2023-07-09T07:51:41;30.58;;;20.38;;
20124;SDS011;10223;50.862;4.360;2023-07-09T07:54:09;36.95;;;21.05;;
20124;SDS011;10223;50.862;4.360;2023-07-09T07:56:36;38.78;;;24.02;;
20124;SDS011;10223;50.862;4.360;2023-07-09T07:59:04;35.67;;;22.23;;
20124;SDS011;10223;50.862;4.360;2023-07-09T08:01:31;34.08;;;22.40;;
20124;SDS011;10223;50.862;4.360;2023-07-09T08:04:00;39.10;;;24.05;;
20124;SDS011;10223;50.862;4.360;2023-07-09T08:06:27;35.28;;;24.77;;
20124;SDS011;10223;50.862;4.360;2023-07-09T08:08:54;44.13;;;27.58;;
20124;SDS011;10223;50.862;4.360;2023-07-09T08:11:21;36.67;;;23.73;;
20124;SDS011;10223;50.862;4.360;2023-07-09T08:13:49;35.35;;;22.83;;
20124;SDS011;10223;50.862;4.360;2023-07-09T08:16:17;37.95;;;23.83;;
20124;SDS011;10223;50.862;4.360;2023-07-09T08:18:44;29.00;;;21.05;;
20124;SDS011;10223;50.862;4.360;2023-07-09T08:21:11;37.17;;;23.55;;
20124;SDS011;10223;50.862;4.360;2023-07-09T08:23:38;33.67;;;22.15;;
20124;SDS011;10223;50.862;4.360;2023-07-09T08:26:05;33.63;;;22.25;;
20124;SDS011;10223;50.862;4.360;2023-07-09T08:28:33;35.80;;;22.88;;
20124;SDS011;10223;50.862;4.360;2023-07-09T08:31:01;32.65;;;22.83;;
20124;SDS011;10223;50.862;4.360;2023-07-09T08:33:29;31.42;;;23.00;;
20124;SDS011;10223;50.862;4.360;2023-07-09T08:35:57;34.30;;;24.20;;
20124;SDS011;10223;50.862;4.360;2023-07-09T08:38:23;34.92;;;22.80;;
20124;SDS011;10223;50.862;4.360;2023-07-09T08:40:53;38.63;;;22.88;;
20124;SDS011;10223;50.862;4.360;2023-07-09T08:43:27;30.00;;;21.63;;
20124;SDS011;10223;50.862;4.360;2023-07-09T08:46:02;29.92;;;22.38;;
20124;SDS011;10223;50.862;4.360;2023-07-09T08:48:40;31.90;;;22.38;;
20124;SDS011;10223;50.862;4.360;2023-07-09T08:51:12;33.75;;;22.20;;
20124;SDS011;10223;50.862;4.360;2023-07-09T08:53:43;35.30;;;23.17;;
20124;SDS011;10223;50.862;4.360;2023-07-09T08:56:15;34.83;;;24.88;;
20124;SDS011;10223;50.862;4.360;2023-07-09T08:58:43;32.40;;;23.45;;
20124;SDS011;10223;50.862;4.360;2023-07-09T09:01:14;37.20;;;22.80;;
20124;SDS011;10223;50.862;4.360;2023-07-09T09:03:47;37.40;;;24.70;;
20124;SDS011;10223;50.862;4.360;2023-07-09T09:06:17;36.22;;;24.98;;
20124;SDS011;10223;50.862;4.360;2023-07-09T09:08:48;34.22;;;23.60;;
20124;SDS011;10223;50.862;4.360;2023-07-09T09:11:30;35.13;;;22.27;;
20124;SDS011;10223;50.862;4.360;2023-07-09T09:14:05;38.55;;;23.77;;
20124;SDS011;10223;50.862;4.360;2023-07-09T09:16:39;37.13;;;24.27;;
20124;SDS011;10223;50.862;4.360;2023-07-09T09:19:13;40.75;;;24.45;;
20124;SDS011;10223;50.862;4.360;2023-07-09T09:21:47;31.48;;;22.52;;
20124;SDS011;10223;50.862;4.360;2023-07-09T09:24:22;32.78;;;23.17;;
20124;SDS011;10223;50.862;4.360;2023-07-09T09:26:53;33.67;;;24.23;;
20124;SDS011;10223;50.862;4.360;2023-07-09T09:29:24;29.02;;;21.80;;
20124;SDS011;10223;50.862;4.360;2023-07-09T09:31:52;33.65;;;21.60;;
20124;SDS011;10223;50.862;4.360;2023-07-09T09:34:24;32.10;;;23.65;;
20124;SDS011;10223;50.862;4.360;2023-07-09T09:36:53;32.42;;;22.83;;
20124;SDS011;10223;50.862;4.360;2023-07-09T09:39:20;28.73;;;20.95;;
20124;SDS011;10223;50.862;4.360;2023-07-09T09:41:51;33.58;;;21.13;;
20124;SDS011;10223;50.862;4.360;2023-07-09T09:44:20;36.55;;;23.00;;
20124;SDS011;10223;50.862;4.360;2023-07-09T09:46:50;34.17;;;21.95;;
20124;SDS011;10223;50.862;4.360;2023-07-09T09:49:17;31.15;;;21.63;;
20124;SDS011;10223;50.862;4.360;2023-07-09T09:51:46;31.02;;;20.67;;
20124;SDS011;10223;50.862;4.360;2023-07-09T09:54:15;30.38;;;19.27;;
20124;SDS011;10223;50.862;4.360;2023-07-09T09:56:45;32.70;;;23.38;;
20124;SDS011;10223;50.862;4.360;2023-07-09T09:59:15;27.75;;;20.88;;
20124;SDS011;10223;50.862;4.360;2023-07-09T10:01:45;30.73;;;20.90;;
20124;SDS011;10223;50.862;4.360;2023-07-09T10:04:15;29.10;;;19.00;;
20124;SDS011;10223;50.862;4.360;2023-07-09T10:06:45;26.75;;;18.48;;
20124;SDS011;10223;50.862;4.360;2023-07-09T10:09:26;26.55;;;17.58;;
20124;SDS011;10223;50.862;4.360;2023-07-09T10:12:02;23.83;;;17.25;;
20124;SDS011;10223;50.862;4.360;2023-07-09T10:14:37;25.52;;;17.50;;
20124;SDS011;10223;50.862;4.360;2023-07-09T10:17:15;22.38;;;15.57;;
20124;SDS011;10223;50.862;4.360;2023-07-09T10:19:49;25.48;;;15.27;;
20124;SDS011;10223;50.862;4.360;2023-07-09T10:22:28;22.90;;;15.52;;
20124;SDS011;10223;50.862;4.360;2023-07-09T10:25:09;19.48;;;14.98;;
20124;SDS011;10223;50.862;4.360;2023-07-09T10:27:44;25.60;;;15.45;;
20124;SDS011;10223;50.862;4.360;2023-07-09T10:30:42;21.25;;;15.13;;
20124;SDS011;10223;50.862;4.360;2023-07-09T10:33:16;20.70;;;13.07;;
20124;SDS011;10223;50.862;4.360;2023-07-09T10:35:53;18.98;;;12.68;;
20124;SDS011;10223;50.862;4.360;2023-07-09T10:38:32;21.60;;;12.40;;
20124;SDS011;10223;50.862;4.360;2023-07-09T10:41:07;19.13;;;11.90;;
20124;SDS011;10223;50.862;4.360;2023-07-09T10:43:37;22.15;;;13.23;;
20124;SDS011;10223;50.862;4.360;2023-07-09T10:46:13;18.40;;;12.15;;
20124;SDS011;10223;50.862;4.360;2023-07-09T10:48:44;18.08;;;11.88;;
20124;SDS011;10223;50.862;4.360;2023-07-09T10:51:16;16.05;;;10.30;;
20124;SDS011;10223;50.862;4.360;2023-07-09T10:53:50;16.85;;;9.73;;
20124;SDS011;10223;50.862;4.360;2023-07-09T10:56:22;17.13;;;9.25;;
20124;SDS011;10223;50.862;4.360;2023-07-09T10:58:52;16.83;;;10.43;;
20124;SDS011;10223;50.862;4.360;2023-07-09T11:01:26;14.65;;;9.50;;
20124;SDS011;10223;50.862;4.360;2023-07-09T11:04:00;14.27;;;7.90;;
20124;SDS011;10223;50.862;4.360;2023-07-09T11:06:31;11.45;;;7.30;;
20124;SDS011;10223;50.862;4.360;2023-07-09T11:09:04;10.82;;;6.82;;
20124;SDS011;10223;50.862;4.360;2023-07-09T11:11:51;11.70;;;6.15;;
20124;SDS011;10223;50.862;4.360;2023-07-09T11:14:23;12.02;;;6.88;;
20124;SDS011;10223;50.862;4.360;2023-07-09T11:16:57;10.20;;;5.18;;
20124;SDS011;10223;50.862;4.360;2023-07-09T11:19:26;8.40;;;5.00;;
20124;SDS011;10223;50.862;4.360;2023-07-09T11:21:57;9.57;;;4.90;;
20124;SDS011;10223;50.862;4.360;2023-07-09T11:24:34;9.38;;;4.93;;
20124;SDS011;10223;50.862;4.360;2023-07-09T11:27:21;8.63;;;5.18;;
20124;SDS011;10223;50.862;4.360;2023-07-09T11:29:56;11.90;;;5.05;;
20124;SDS011;10223;50.862;4.360;2023-07-09T11:32:24;12.63;;;7.38;;
20124;SDS011;10223;50.862;4.360;2023-07-09T11:34:52;10.05;;;4.88;;
20124;SDS011;10223;50.862;4.360;2023-07-09T11:37:20;8.98;;;4.60;;
20124;SDS011;10223;50.862;4.360;2023-07-09T11:39:52;10.02;;;4.25;;
20124;SDS011;10223;50.862;4.360;2023-07-09T11:42:26;17.27;;;7.00;;
20124;SDS011;10223;50.862;4.360;2023-07-09T11:45:02;14.55;;;5.68;;
20124;SDS011;10223;50.862;4.360;2023-07-09T11:47:34;8.80;;;4.75;;
20124;SDS011;10223;50.862;4.360;2023-07-09T11:50:04;8.93;;;4.65;;
20124;SDS011;10223;50.862;4.360;2023-07-09T11:52:49;12.30;;;4.05;;
20124;SDS011;10223;50.862;4.360;2023-07-09T11:55:24;10.98;;;4.82;;
20124;SDS011;10223;50.862;4.360;2023-07-09T11:57:53;9.50;;;4.63;;
20124;SDS011;10223;50.862;4.360;2023-07-09T12:00:21;9.07;;;5.20;;
20124;SDS011;10223;50.862;4.360;2023-07-09T12:02:48;9.45;;;5.20;;
20124;SDS011;10223;50.862;4.360;2023-07-09T12:05:18;9.40;;;5.03;;
20124;SDS011;10223;50.862;4.360;2023-07-09T12:07:47;8.88;;;4.72;;
20124;SDS011;10223;50.862;4.360;2023-07-09T12:10:19;11.27;;;6.72;;
20124;SDS011;10223;50.862;4.360;2023-07-09T12:12:48;8.95;;;4.70;;
20124;SDS011;10223;50.862;4.360;2023-07-09T12:15:22;8.55;;;4.13;;
20124;SDS011;10223;50.862;4.360;2023-07-09T12:17:54;8.55;;;4.53;;
20124;SDS011;10223;50.862;4.360;2023-07-09T12:20:22;9.88;;;4.28;;
20124;SDS011;10223;50.862;4.360;2023-07-09T12:22:49;9.63;;;4.70;;
20124;SDS011;10223;50.862;4.360;2023-07-09T12:25:21;9.68;;;4.72;;
20124;SDS011;10223;50.862;4.360;2023-07-09T12:27:51;11.07;;;5.57;;
20124;SDS011;10223;50.862;4.360;2023-07-09T12:30:18;13.57;;;5.20;;
20124;SDS011;10223;50.862;4.360;2023-07-09T12:32:45;12.13;;;6.15;;
20124;SDS011;10223;50.862;4.360;2023-07-09T12:35:15;14.48;;;6.88;;
20124;SDS011;10223;50.862;4.360;2023-07-09T12:37:43;15.07;;;6.97;;
20124;SDS011;10223;50.862;4.360;2023-07-09T12:40:12;12.23;;;6.53;;
20124;SDS011;10223;50.862;4.360;2023-07-09T12:42:42;10.73;;;6.85;;
20124;SDS011;10223;50.862;4.360;2023-07-09T12:45:14;12.45;;;7.35;;
20124;SDS011;10223;50.862;4.360;2023-07-09T12:47:44;16.83;;;9.07;;
20124;SDS011;10223;50.862;4.360;2023-07-09T12:50:28;19.40;;;9.25;;
20124;SDS011;10223;50.862;4.360;2023-07-09T12:52:59;17.77;;;9.02;;
20124;SDS011;10223;50.862;4.360;2023-07-09T12:55:28;11.15;;;7.53;;
20124;SDS011;10223;50.862;4.360;2023-07-09T12:58:03;17.45;;;8.80;;
20124;SDS011;10223;50.862;4.360;2023-07-09T13:00:36;19.50;;;7.60;;
20124;SDS011;10223;50.862;4.360;2023-07-09T13:03:02;14.38;;;8.57;;
20124;SDS011;10223;50.862;4.360;2023-07-09T13:05:37;15.27;;;7.68;;
20124;SDS011;10223;50.862;4.360;2023-07-09T13:08:03;13.18;;;7.53;;
20124;SDS011;10223;50.862;4.360;2023-07-09T13:10:34;13.20;;;7.75;;
20124;SDS011;10223;50.862;4.360;2023-07-09T13:13:10;13.43;;;7.93;;
20124;SDS011;10223;50.862;4.360;2023-07-09T13:15:41;15.13;;;7.47;;
20124;SDS011;10223;50.862;4.360;2023-07-09T13:18:11;17.52;;;8.02;;
20124;SDS011;10223;50.862;4.360;2023-07-09T13:20:39;14.13;;;7.72;;
20124;SDS011;10223;50.862;4.360;2023-07-09T13:23:08;14.13;;;7.22;;
20124;SDS011;10223;50.862;4.360;2023-07-09T13:25:37;10.05;;;7.18;;
20124;SDS011;10223;50.862;4.360;2023-07-09T13:28:05;14.60;;;7.90;;
20124;SDS011;10223;50.862;4.360;2023-07-09T13:30:34;18.17;;;7.95;;
20124;SDS011;10223;50.862;4.360;2023-07-09T13:33:04;16.13;;;8.68;;
20124;SDS011;10223;50.862;4.360;2023-07-09T13:35:35;12.68;;;7.70;;
20124;SDS011;10223;50.862;4.360;2023-07-09T13:38:02;15.15;;;8.05;;
20124;SDS011;10223;50.862;4.360;2023-07-09T13:40:30;13.13;;;7.18;;
20124;SDS011;10223;50.862;4.360;2023-07-09T13:42:57;11.45;;;7.43;;
20124;SDS011;10223;50.862;4.360;2023-07-09T13:45:24;10.68;;;6.65;;
20124;SDS011;10223;50.862;4.360;2023-07-09T13:47:51;12.15;;;6.57;;
20124;SDS011;10223;50.862;4.360;2023-07-09T13:50:20;12.57;;;7.00;;
20124;SDS011;10223;50.862;4.360;2023-07-09T13:52:48;11.30;;;6.47;;
20124;SDS011;10223;50.862;4.360;2023-07-09T13:55:16;13.48;;;6.88;;
20124;SDS011;10223;50.862;4.360;2023-07-09T13:57:45;12.27;;;7.13;;
20124;SDS011;10223;50.862;4.360;2023-07-09T14:00:12;21.92;;;9.43;;
20124;SDS011;10223;50.862;4.360;2023-07-09T14:02:39;11.40;;;6.63;;
20124;SDS011;10223;50.862;4.360;2023-07-09T14:05:07;12.45;;;7.00;;
20124;SDS011;10223;50.862;4.360;2023-07-09T14:07:37;16.08;;;7.50;;
20124;SDS011;10223;50.862;4.360;2023-07-09T14:10:06;10.57;;;4.97;;
20124;SDS011;10223;50.862;4.360;2023-07-09T14:12:39;7.50;;;4.57;;
20124;SDS011;10223;50.862;4.360;2023-07-09T14:15:11;8.07;;;4.65;;
20124;SDS011;10223;50.862;4.360;2023-07-09T14:17:40;10.32;;;4.20;;
20124;SDS011;10223;50.862;4.360;2023-07-09T14:20:10;7.75;;;4.53;;
20124;SDS011;10223;50.862;4.360;2023-07-09T14:22:39;9.00;;;4.40;;
20124;SDS011;10223;50.862;4.360;2023-07-09T14:25:10;10.55;;;5.10;;
20124;SDS011;10223;50.862;4.360;2023-07-09T14:27:43;6.25;;;3.95;;
20124;SDS011;10223;50.862;4.360;2023-07-09T14:30:13;8.23;;;4.32;;
20124;SDS011;10223;50.862;4.360;2023-07-09T14:32:41;6.88;;;3.78;;
20124;SDS011;10223;50.862;4.360;2023-07-09T14:35:12;8.23;;;4.00;;
20124;SDS011;10223;50.862;4.360;2023-07-09T14:37:41;7.15;;;4.38;;
20124;SDS011;10223;50.862;4.360;2023-07-09T14:40:09;9.93;;;5.70;;
20124;SDS011;10223;50.862;4.360;2023-07-09T14:42:37;7.75;;;4.00;;
20124;SDS011;10223;50.862;4.360;2023-07-09T14:45:04;8.27;;;4.63;;
20124;SDS011;10223;50.862;4.360;2023-07-09T14:47:41;9.50;;;5.30;;